createdAt,value
2023-04-02T00:00:37.169Z,1.95
2023-04-02T00:01:40.314Z,0.70
2023-04-02T00:02:55.199Z,0.80
2023-04-02T00:03:59.702Z,0.45
2023-04-02T00:05:30.564Z,0.60
2023-04-02T00:07:08.283Z,0.90
2023-04-02T00:08:49.147Z,1.02
2023-04-02T00:09:52.008Z,1.08
2023-04-02T00:11:02.272Z,1.38
2023-04-02T00:12:17.266Z,0.63
2023-04-02T00:13:29.686Z,1.38
2023-04-02T00:14:34.514Z,0.93
2023-04-02T00:15:42.835Z,1.23
2023-04-02T00:16:46.281Z,0.80
2023-04-02T00:17:49.226Z,1.38
2023-04-02T00:18:56.580Z,0.52
2023-04-02T00:20:09.290Z,0.60
2023-04-02T00:21:24.845Z,0.88
2023-04-02T00:22:31.917Z,1.08
2023-04-02T00:23:39.002Z,1.20
2023-04-02T00:24:42.409Z,1.35
2023-04-02T00:25:46.645Z,0.82
2023-04-02T00:26:54.394Z,1.10
2023-04-02T00:27:57.350Z,0.80
2023-04-02T00:29:02.524Z,1.67
2023-04-02T00:30:09.056Z,0.70
2023-04-02T00:31:12.820Z,0.90
2023-04-02T00:32:23.149Z,1.17
2023-04-02T00:33:31.863Z,1.02
2023-04-02T00:34:38.050Z,1.90
2023-04-02T00:35:41.749Z,1.58
2023-04-02T00:36:44.818Z,2.90
2023-04-02T00:37:47.642Z,0.60
2023-04-02T00:38:51.205Z,0.95
2023-04-02T00:40:08.324Z,0.73
2023-04-02T00:41:17.164Z,1.00
2023-04-02T00:42:20.778Z,0.82
2023-04-02T00:43:29.271Z,1.10
2023-04-02T00:44:34.870Z,0.82
2023-04-02T00:45:39.119Z,1.17
2023-04-02T00:46:51.452Z,1.20
2023-04-02T00:47:54.913Z,1.98
2023-04-02T00:49:35.431Z,0.88
2023-04-02T00:50:43.078Z,1.10
2023-04-02T00:51:58.173Z,0.90
2023-04-02T00:53:05.547Z,1.33
2023-04-02T00:54:16.185Z,0.80
2023-04-02T00:55:25.569Z,0.70
2023-04-02T00:56:44.635Z,0.85
2023-04-02T00:57:50.619Z,2.13
2023-04-02T00:58:55.934Z,1.10
2023-04-02T01:00:08.115Z,1.15
2023-04-02T01:01:20.065Z,1.25
2023-04-02T01:02:38.717Z,0.57
2023-04-02T01:03:44.309Z,1.42
2023-04-02T01:05:02.889Z,1.10
2023-04-02T01:06:13.487Z,0.95
2023-04-02T01:07:17.583Z,1.10
2023-04-02T01:08:38.977Z,1.20
2023-04-02T01:10:12.097Z,1.02
2023-04-02T01:11:42.360Z,2.30
2023-04-02T01:13:11.508Z,1.50
2023-04-02T01:14:20.288Z,1.48
2023-04-02T01:15:31.354Z,1.35
2023-04-02T01:16:47.825Z,1.00
2023-04-02T01:17:58.816Z,0.82
2023-04-02T01:19:47.548Z,1.05
2023-04-02T01:21:29.285Z,0.90
2023-04-02T01:22:48.285Z,1.02
2023-04-02T01:24:02.323Z,1.38
2023-04-02T01:25:06.755Z,1.00
2023-04-02T01:26:28.387Z,1.15
2023-04-02T01:27:43.720Z,0.70
2023-04-02T01:29:07.169Z,0.80
2023-04-02T01:30:12.290Z,0.90
2023-04-02T01:31:16.933Z,1.15
2023-04-02T01:32:22.358Z,1.00
2023-04-02T01:33:30.355Z,0.82
2023-04-02T01:34:34.365Z,0.93
2023-04-02T01:35:42.815Z,1.38
2023-04-02T01:37:01.267Z,1.65
2023-04-02T01:38:18.745Z,0.98
2023-04-02T01:39:50.560Z,0.82
2023-04-02T01:41:02.738Z,0.80
2023-04-02T01:42:29.397Z,0.68
2023-04-02T01:43:41.152Z,1.17
2023-04-02T01:44:49.113Z,0.90
2023-04-02T01:45:52.624Z,1.17
2023-04-02T01:46:59.164Z,1.00
2023-04-02T01:48:18.172Z,0.90
2023-04-02T01:50:33.964Z,0.90
2023-04-02T01:51:42.636Z,1.10
2023-04-02T01:52:48.566Z,0.80
2023-04-02T01:53:51.593Z,1.15
2023-04-02T01:54:57.902Z,0.82
2023-04-02T01:56:03.038Z,1.20
2023-04-02T01:57:06.257Z,1.13
2023-04-02T01:58:11.836Z,0.88
2023-04-02T01:59:22.529Z,0.77
2023-04-02T02:00:31.339Z,1.08
2023-04-02T02:01:43.025Z,1.10
2023-04-02T02:02:49.812Z,1.20
2023-04-02T02:03:54.007Z,0.93
2023-04-02T02:04:58.314Z,0.80
2023-04-02T02:06:03.166Z,0.70
2023-04-02T02:07:10.548Z,1.15
2023-04-02T02:08:46.309Z,0.98
2023-04-02T02:09:50.588Z,1.30
2023-04-02T02:10:53.731Z,1.38
2023-04-02T02:11:59.136Z,1.10
2023-04-02T02:13:02.500Z,2.08
2023-04-02T02:14:25.051Z,1.00
2023-04-02T02:15:32.064Z,1.00
2023-04-02T02:16:42.152Z,1.13
2023-04-02T02:17:45.378Z,1.13
2023-04-02T02:18:52.558Z,1.23
2023-04-02T02:19:59.225Z,1.67
2023-04-02T02:21:07.630Z,0.73
2023-04-02T02:22:39.306Z,1.65
2023-04-02T02:23:42.711Z,1.00
2023-04-02T02:24:46.024Z,0.90
2023-04-02T02:25:49.018Z,1.67
2023-04-02T02:27:16.070Z,1.10
2023-04-02T02:28:23.733Z,0.70
2023-04-02T02:29:28.979Z,1.67
2023-04-02T02:30:49.377Z,1.00
2023-04-02T02:31:55.750Z,0.98
2023-04-02T02:33:06.930Z,1.02
2023-04-02T02:34:21.267Z,0.85
2023-04-02T02:35:31.342Z,1.15
2023-04-02T02:36:53.644Z,1.23
2023-04-02T02:38:28.460Z,1.15
2023-04-02T02:39:39.498Z,1.65
2023-04-02T02:40:48.577Z,0.75
2023-04-02T02:42:01.012Z,1.35
2023-04-02T02:43:10.675Z,1.10
2023-04-02T02:44:26.133Z,1.05
2023-04-02T02:45:37.990Z,1.55
2023-04-02T02:46:47.021Z,0.88
2023-04-02T02:47:52.431Z,1.10
2023-04-02T02:48:57.506Z,1.33
2023-04-02T02:50:05.012Z,0.60
2023-04-02T02:52:25.267Z,0.90
2023-04-02T02:53:34.297Z,0.82
2023-04-02T02:54:42.132Z,0.82
2023-04-02T02:55:46.622Z,1.58
2023-04-02T02:57:03.882Z,0.98
2023-04-02T02:58:15.827Z,1.00
2023-04-02T02:59:30.085Z,0.73
2023-04-02T03:00:35.676Z,0.90
2023-04-02T03:01:39.136Z,1.50
2023-04-02T03:02:43.557Z,0.82
2023-04-02T03:03:49.660Z,0.88
2023-04-02T03:04:55.358Z,1.40
2023-04-02T03:06:07.779Z,2.65
2023-04-02T03:07:12.068Z,1.33
2023-04-02T03:08:26.949Z,0.60
2023-04-02T03:09:46.131Z,1.38
2023-04-02T03:11:01.382Z,0.70
2023-04-02T03:12:32.891Z,1.40
2023-04-02T03:13:39.210Z,1.20
2023-04-02T03:15:11.403Z,1.45
2023-04-02T03:16:42.191Z,0.90
2023-04-02T03:18:27.456Z,0.88
2023-04-02T03:19:56.981Z,0.70
2023-04-02T03:21:22.094Z,0.77
2023-04-02T03:22:38.490Z,0.73
2023-04-02T03:23:47.707Z,1.42
2023-04-02T03:24:59.516Z,0.80
2023-04-02T03:26:12.714Z,0.98
2023-04-02T03:27:23.672Z,1.35
2023-04-02T03:28:32.436Z,1.17
2023-04-02T03:29:41.053Z,0.80
2023-04-02T03:30:53.304Z,0.65
2023-04-02T03:32:12.762Z,0.60
2023-04-02T03:34:39.216Z,0.63
2023-04-02T03:35:48.780Z,0.60
2023-04-02T03:37:06.740Z,0.82
2023-04-02T03:38:52.896Z,1.13
2023-04-02T03:40:15.518Z,0.90
2023-04-02T03:41:39.164Z,0.98
2023-04-02T03:42:48.464Z,1.45
2023-04-02T03:43:59.154Z,0.70
2023-04-02T03:45:15.681Z,0.80
2023-04-02T03:46:26.668Z,0.77
2023-04-02T03:47:49.185Z,1.55
2023-04-02T03:48:58.033Z,0.98
2023-04-02T03:50:08.549Z,0.75
2023-04-02T03:51:27.701Z,0.52
2023-04-02T03:52:31.233Z,0.70
2023-04-02T03:53:38.422Z,0.63
2023-04-02T03:54:54.208Z,0.82
2023-04-02T03:56:00.014Z,0.80
2023-04-02T03:57:04.003Z,0.80
2023-04-02T03:58:18.345Z,0.75
2023-04-02T03:59:36.118Z,0.77
2023-04-02T04:00:57.900Z,0.70
2023-04-02T04:02:23.334Z,1.63
2023-04-02T04:03:51.355Z,0.70
2023-04-02T04:04:56.151Z,0.93
2023-04-02T04:06:30.140Z,0.85
2023-04-02T04:07:40.161Z,0.50
2023-04-02T04:08:51.998Z,0.65
2023-04-02T04:09:55.959Z,0.57
2023-04-02T04:11:07.483Z,0.90
2023-04-02T04:12:28.714Z,0.70
2023-04-02T04:13:43.832Z,0.75
2023-04-02T04:14:55.638Z,0.70
2023-04-02T04:16:05.085Z,0.80
2023-04-02T04:17:25.025Z,0.63
2023-04-02T04:18:35.207Z,1.60
2023-04-02T04:20:16.254Z,0.75
2023-04-02T04:21:47.977Z,0.90
2023-04-02T04:23:09.931Z,1.00
2023-04-02T04:24:22.506Z,1.40
2023-04-02T04:25:34.061Z,0.95
2023-04-02T04:27:10.392Z,0.80
2023-04-02T04:28:29.628Z,1.33
2023-04-02T04:29:58.272Z,0.80
2023-04-02T04:31:18.228Z,0.90
2023-04-02T04:32:50.623Z,0.60
2023-04-02T04:34:05.532Z,0.88
2023-04-02T04:35:45.766Z,0.80
2023-04-02T04:36:55.515Z,0.57
2023-04-02T04:38:28.044Z,0.70
2023-04-02T04:39:51.270Z,0.73
2023-04-02T04:40:57.915Z,0.60
2023-04-02T04:42:07.633Z,0.85
2023-04-02T04:43:19.594Z,0.88
2023-04-02T04:44:37.771Z,0.63
2023-04-02T04:45:59.094Z,1.13
2023-04-02T04:47:12.326Z,0.68
2023-04-02T04:49:22.750Z,1.00
2023-04-02T04:50:41.715Z,0.95
2023-04-02T04:51:53.849Z,0.73
2023-04-02T04:52:57.914Z,0.60
2023-04-02T04:54:01.509Z,0.93
2023-04-02T04:55:37.209Z,0.70
2023-04-02T04:56:41.023Z,1.27
2023-04-02T04:57:50.520Z,0.90
2023-04-02T04:59:07.533Z,1.10
2023-04-02T05:00:46.571Z,0.90
2023-04-02T05:02:02.878Z,0.63
2023-04-02T05:03:14.314Z,0.52
2023-04-02T05:04:33.669Z,0.70
2023-04-02T05:05:40.967Z,1.10
2023-04-02T05:07:07.542Z,0.52
2023-04-02T05:08:32.936Z,0.80
2023-04-02T05:09:44.810Z,1.13
2023-04-02T05:10:55.092Z,1.30
2023-04-02T05:12:28.926Z,0.80
2023-04-02T05:13:51.498Z,1.42
2023-04-02T05:15:09.278Z,0.90
2023-04-02T05:16:40.032Z,1.75
2023-04-02T05:19:05.607Z,0.70
2023-04-02T05:20:22.670Z,0.75
2023-04-02T05:21:49.460Z,0.80
2023-04-02T05:23:03.306Z,1.00
2023-04-02T05:24:39.096Z,0.90
2023-04-02T05:26:07.118Z,0.65
2023-04-02T05:27:25.322Z,0.90
2023-04-02T05:28:51.260Z,1.10
2023-04-02T05:30:13.812Z,0.70
2023-04-02T05:31:28.287Z,0.90
2023-04-02T05:32:41.217Z,0.50
2023-04-02T05:33:49.436Z,0.70
2023-04-02T05:34:57.207Z,0.82
2023-04-02T05:36:11.909Z,0.47
2023-04-02T05:37:23.048Z,0.80
2023-04-02T05:38:31.987Z,0.90
2023-04-02T05:39:35.800Z,0.57
2023-04-02T05:40:43.318Z,0.98
2023-04-02T05:41:47.802Z,1.25
2023-04-02T05:43:10.096Z,0.70
2023-04-02T05:44:30.899Z,0.77
2023-04-02T05:45:37.776Z,0.70
2023-04-02T05:46:52.265Z,1.20
2023-04-02T05:48:02.258Z,0.88
2023-04-02T05:49:25.082Z,0.63
2023-04-02T05:50:37.545Z,0.60
2023-04-02T05:51:47.574Z,0.88
2023-04-02T05:52:57.150Z,0.90
2023-04-02T05:54:04.218Z,0.43
2023-04-02T05:55:12.900Z,0.73
2023-04-02T05:56:32.270Z,0.55
2023-04-02T05:58:10.399Z,1.33
2023-04-02T05:59:25.983Z,0.60
2023-04-02T06:00:36.764Z,1.60
2023-04-02T06:01:53.825Z,0.50
2023-04-02T06:03:08.576Z,0.50
2023-04-02T06:04:24.748Z,0.73
2023-04-02T06:05:36.351Z,0.93
2023-04-02T06:06:57.648Z,0.80
2023-04-02T06:08:06.651Z,0.80
2023-04-02T06:09:30.839Z,0.70
2023-04-02T06:11:01.472Z,0.85
2023-04-02T06:14:31.477Z,1.33
2023-04-02T06:15:36.699Z,0.52
2023-04-02T06:16:46.668Z,0.90
2023-04-02T06:18:02.516Z,0.73
2023-04-02T06:19:26.000Z,0.52
2023-04-02T06:20:29.023Z,1.15
2023-04-02T06:21:32.266Z,0.93
2023-04-02T06:22:40.039Z,0.70
2023-04-02T06:24:09.667Z,0.57
2023-04-02T06:25:28.290Z,0.73
2023-04-02T06:26:41.737Z,0.60
2023-04-02T06:27:51.790Z,0.55
2023-04-02T06:29:15.845Z,0.60
2023-04-02T06:30:25.022Z,0.52
2023-04-02T06:31:36.138Z,0.85
2023-04-02T06:32:41.371Z,0.60
2023-04-02T06:33:46.131Z,0.80
2023-04-02T06:34:50.572Z,0.70
2023-04-02T06:35:55.918Z,0.47
2023-04-02T06:37:24.937Z,0.50
2023-04-02T06:38:35.672Z,0.40
2023-04-02T06:39:38.482Z,0.70
2023-04-02T06:41:03.030Z,1.23
2023-04-02T06:42:35.604Z,0.95
2023-04-02T06:44:01.538Z,0.73
2023-04-02T06:45:43.800Z,0.73
2023-04-02T06:47:30.619Z,0.88
2023-04-02T06:48:36.579Z,1.27
2023-04-02T06:49:46.981Z,0.55
2023-04-02T06:51:19.441Z,0.80
2023-04-02T06:52:28.704Z,0.80
2023-04-02T06:53:38.971Z,0.80
2023-04-02T06:54:42.350Z,1.05
2023-04-02T06:56:04.890Z,0.77
2023-04-02T06:57:12.588Z,0.55
2023-04-02T06:58:21.379Z,0.95
2023-04-02T06:59:24.966Z,0.70
2023-04-02T07:00:38.686Z,0.75
2023-04-02T07:02:01.103Z,0.85
2023-04-02T07:03:08.358Z,1.00
2023-04-02T07:04:12.088Z,0.75
2023-04-02T07:05:18.639Z,0.60
2023-04-02T07:06:23.628Z,0.77
2023-04-02T07:07:29.148Z,1.38
2023-04-02T07:08:32.025Z,0.80
2023-04-02T07:09:35.057Z,0.80
2023-04-02T07:10:39.741Z,0.73
2023-04-02T07:11:42.556Z,0.60
2023-04-02T07:12:46.150Z,0.93
2023-04-02T07:13:50.137Z,0.93
2023-04-02T07:14:53.471Z,1.10
2023-04-02T07:15:56.808Z,0.45
2023-04-02T07:17:01.127Z,0.88
2023-04-02T07:18:04.015Z,0.70
2023-04-02T07:19:07.333Z,0.57
2023-04-02T07:20:29.054Z,1.35
2023-04-02T07:21:32.973Z,1.10
2023-04-02T07:22:36.331Z,1.15
2023-04-02T07:23:39.288Z,0.50
2023-04-02T07:24:42.044Z,1.13
2023-04-02T07:25:44.945Z,0.88
2023-04-02T07:26:48.416Z,0.70
2023-04-02T07:27:52.467Z,0.95
2023-04-02T07:28:56.496Z,0.85
2023-04-02T07:29:59.353Z,0.82
2023-04-02T07:31:02.154Z,0.80
2023-04-02T07:32:05.073Z,0.70
2023-04-02T07:33:08.170Z,0.85
2023-04-02T07:34:11.228Z,0.70
2023-04-02T07:35:14.300Z,0.85
2023-04-02T07:36:19.783Z,0.57
2023-04-02T07:37:22.718Z,0.77
2023-04-02T07:38:26.034Z,1.30
2023-04-02T07:39:29.710Z,0.82
2023-04-02T07:40:32.556Z,1.15
2023-04-02T07:41:51.996Z,1.55
2023-04-02T07:42:54.727Z,1.30
2023-04-02T07:43:57.581Z,0.93
2023-04-02T07:45:00.722Z,0.73
2023-04-02T07:46:05.588Z,1.30
2023-04-02T07:47:10.721Z,0.77
2023-04-02T07:48:14.520Z,0.63
2023-04-02T07:49:17.444Z,1.13
2023-04-02T07:50:22.136Z,0.70
2023-04-02T07:51:26.817Z,0.98
2023-04-02T07:52:29.853Z,2.03
2023-04-02T07:53:33.995Z,1.00
2023-04-02T07:54:38.443Z,1.08
2023-04-02T07:55:41.408Z,1.52
2023-04-02T07:56:44.290Z,1.05
2023-04-02T07:57:51.377Z,1.90
2023-04-02T07:58:54.247Z,1.00
2023-04-02T07:59:57.476Z,1.13
2023-04-02T08:01:01.985Z,1.50
2023-04-02T08:02:04.865Z,2.92
2023-04-02T08:03:07.903Z,2.60
2023-04-02T08:04:19.857Z,2.42
2023-04-02T08:05:22.887Z,1.30
2023-04-02T08:06:26.262Z,2.90
2023-04-02T08:07:29.152Z,1.20
2023-04-02T08:08:31.870Z,2.97
2023-04-02T08:09:34.632Z,1.90
2023-04-02T08:10:37.372Z,1.80
2023-04-02T08:11:42.394Z,2.95
2023-04-02T08:12:45.625Z,2.88
2023-04-02T08:13:48.592Z,1.98
2023-04-02T08:14:51.638Z,4.20
2023-04-02T08:15:54.380Z,3.28
2023-04-02T08:16:57.375Z,3.97
2023-04-02T08:18:00.338Z,1.33
2023-04-02T08:19:03.147Z,1.67
2023-04-02T08:20:07.096Z,3.08
2023-04-02T08:21:14.651Z,4.20
2023-04-02T08:22:18.822Z,3.72
2023-04-02T08:23:22.284Z,3.20
2023-04-02T08:24:25.157Z,4.30
2023-04-02T08:25:28.517Z,2.85
2023-04-02T08:26:31.431Z,3.13
2023-04-02T08:27:34.190Z,1.98
2023-04-02T08:28:37.138Z,4.18
2023-04-02T08:29:39.880Z,3.53
2023-04-02T08:30:42.877Z,2.83
2023-04-02T08:31:45.703Z,2.60
2023-04-02T08:32:48.621Z,3.40
2023-04-02T08:33:51.515Z,5.07
2023-04-02T08:34:54.252Z,2.50
2023-04-02T08:35:57.184Z,3.60
2023-04-02T08:36:59.954Z,3.35
2023-04-02T08:38:02.837Z,3.58
2023-04-02T08:39:11.178Z,3.15
2023-04-02T08:40:23.799Z,3.03
2023-04-02T08:41:32.449Z,1.75
2023-04-02T08:42:52.957Z,3.65
2023-04-02T08:44:01.074Z,4.32
2023-04-02T08:45:24.440Z,2.17
2023-04-02T08:46:36.414Z,3.47
2023-04-02T08:47:41.421Z,2.30
2023-04-02T08:48:51.060Z,2.60
2023-04-02T08:50:02.219Z,6.32
2023-04-02T08:51:08.493Z,6.10
2023-04-02T08:52:26.107Z,3.88
2023-04-02T08:53:37.560Z,1.98
2023-04-02T08:54:44.010Z,3.72
2023-04-02T08:55:55.999Z,2.88
2023-04-02T08:57:17.381Z,2.20
2023-04-02T08:58:41.776Z,3.47
2023-04-02T08:59:45.178Z,4.43
2023-04-02T09:00:51.880Z,4.50
2023-04-02T09:01:54.603Z,2.08
2023-04-02T09:03:07.360Z,4.13
2023-04-02T09:04:19.373Z,4.72
2023-04-02T09:05:30.084Z,3.28
2023-04-02T09:06:34.280Z,3.95
2023-04-02T09:07:37.175Z,5.75
2023-04-02T09:08:40.306Z,2.40
2023-04-02T09:09:44.044Z,4.90
2023-04-02T09:10:55.501Z,3.88
2023-04-02T09:12:04.371Z,4.20
2023-04-02T09:13:20.463Z,2.50
2023-04-02T09:15:03.616Z,7.10
2023-04-02T09:16:06.430Z,2.50
2023-04-02T09:17:46.346Z,4.45
2023-04-02T09:18:53.164Z,4.80
2023-04-02T09:20:24.274Z,2.75
2023-04-02T09:22:35.333Z,3.00
2023-04-02T09:23:38.152Z,4.40
2023-04-02T09:24:40.900Z,3.40
2023-04-02T09:26:03.044Z,3.05
2023-04-02T09:27:22.112Z,2.03
2023-04-02T09:28:26.825Z,3.53
2023-04-02T09:29:45.484Z,2.55
2023-04-02T09:31:15.124Z,3.03
2023-04-02T09:32:53.532Z,3.72
2023-04-02T09:33:56.524Z,2.50
2023-04-02T09:35:26.168Z,1.77
2023-04-02T09:36:40.343Z,2.63
2023-04-02T09:37:44.517Z,3.40
2023-04-02T09:39:07.188Z,2.97
2023-04-02T09:40:24.344Z,3.08
2023-04-02T09:41:30.397Z,5.32
2023-04-02T09:42:36.509Z,3.83
2023-04-02T09:43:39.754Z,3.92
2023-04-02T09:44:42.446Z,3.20
2023-04-02T09:46:00.213Z,3.55
2023-04-02T09:47:23.498Z,2.47
2023-04-02T09:48:30.809Z,3.47
2023-04-02T09:49:39.458Z,2.53
2023-04-02T09:50:42.474Z,2.00
2023-04-02T09:51:45.572Z,2.63
2023-04-02T09:52:49.753Z,1.45
2023-04-02T09:54:08.687Z,3.45
2023-04-02T09:55:20.927Z,3.25
2023-04-02T09:56:25.863Z,3.38
2023-04-02T09:57:29.778Z,2.60
2023-04-02T09:58:32.537Z,2.38
2023-04-02T09:59:35.305Z,2.63
2023-04-02T10:00:41.882Z,3.65
2023-04-02T10:01:48.165Z,2.65
2023-04-02T10:03:08.098Z,3.75
2023-04-02T10:04:36.292Z,2.13
2023-04-02T10:05:40.997Z,2.88
2023-04-02T10:06:51.610Z,4.10
2023-04-02T10:07:55.689Z,2.33
2023-04-02T10:08:59.228Z,2.80
2023-04-02T10:10:25.058Z,3.63
2023-04-02T10:11:46.430Z,3.03
2023-04-02T10:12:59.939Z,3.28
2023-04-02T10:14:09.754Z,2.60
2023-04-02T10:15:24.700Z,2.97
2023-04-02T10:16:58.300Z,2.20
2023-04-02T10:18:13.711Z,4.28
2023-04-02T10:19:31.724Z,3.17
2023-04-02T10:20:48.558Z,2.42
2023-04-02T10:21:55.860Z,3.42
2023-04-02T10:22:58.588Z,2.53
2023-04-02T10:24:03.253Z,3.03
2023-04-02T10:25:17.457Z,2.55
2023-04-02T10:26:44.030Z,2.40
2023-04-02T10:28:03.725Z,3.03
2023-04-02T10:29:27.954Z,2.22
2023-04-02T10:31:00.852Z,2.47
2023-04-02T10:32:32.568Z,3.53
2023-04-02T10:33:38.600Z,2.17
2023-04-02T10:35:04.030Z,2.35
2023-04-02T10:36:21.622Z,3.20
2023-04-02T10:37:57.966Z,2.10
2023-04-02T10:39:08.712Z,1.27
2023-04-02T10:40:11.707Z,1.90
2023-04-02T10:41:31.344Z,2.70
2023-04-02T10:42:57.210Z,1.67
2023-04-02T10:44:26.574Z,3.05
2023-04-02T10:46:01.219Z,2.08
2023-04-02T10:47:11.454Z,3.33
2023-04-02T10:48:41.493Z,2.45
2023-04-02T10:50:05.592Z,2.30
2023-04-02T10:51:24.829Z,2.00
2023-04-02T10:52:31.612Z,2.42
2023-04-02T10:53:53.154Z,2.00
2023-04-02T10:55:01.206Z,1.38
2023-04-02T10:56:09.763Z,3.65
2023-04-02T10:57:18.775Z,2.55
2023-04-02T10:58:28.489Z,1.58
2023-04-02T10:59:35.560Z,1.75
2023-04-02T11:00:43.209Z,3.05
2023-04-02T11:01:48.751Z,2.50
2023-04-02T11:03:06.450Z,2.22
2023-04-02T11:04:20.745Z,2.92
2023-04-02T11:05:37.591Z,1.65
2023-04-02T11:06:47.726Z,2.28
2023-04-02T11:08:27.849Z,2.40
2023-04-02T11:09:37.675Z,1.98
2023-04-02T11:10:49.650Z,1.80
2023-04-02T11:11:56.793Z,1.35
2023-04-02T11:13:07.794Z,1.48
2023-04-02T11:14:18.954Z,2.25
2023-04-02T11:15:22.223Z,1.67
2023-04-02T11:16:25.637Z,1.35
2023-04-02T11:17:29.293Z,2.05
2023-04-02T11:18:36.298Z,2.15
2023-04-02T11:19:39.248Z,3.78
2023-04-02T11:20:48.364Z,1.75
2023-04-02T11:22:01.482Z,2.40
2023-04-02T11:23:14.068Z,3.00
2023-04-02T11:24:33.148Z,1.75
2023-04-02T11:25:36.652Z,2.38
2023-04-02T11:26:42.481Z,1.60
2023-04-02T11:27:45.426Z,2.67
2023-04-02T11:28:48.409Z,1.92
2023-04-02T11:30:26.008Z,1.38
2023-04-02T11:31:29.052Z,1.20
2023-04-02T11:32:33.976Z,1.15
2023-04-02T11:33:44.783Z,2.35
2023-04-02T11:35:03.118Z,0.95
2023-04-02T11:36:46.590Z,1.40
2023-04-02T11:37:49.412Z,1.25
2023-04-02T11:38:53.069Z,1.17
2023-04-02T11:40:01.144Z,2.75
2023-04-02T11:41:04.131Z,0.82
2023-04-02T11:42:25.252Z,1.30
2023-04-02T11:43:33.930Z,1.02
2023-04-02T11:44:36.808Z,1.73
2023-04-02T11:45:52.929Z,1.40
2023-04-02T11:47:16.325Z,1.17
2023-04-02T11:48:36.381Z,1.73
2023-04-02T11:49:56.749Z,1.52
2023-04-02T11:51:04.853Z,2.35
2023-04-02T11:52:22.661Z,1.60
2023-04-02T11:53:28.520Z,2.50
2023-04-02T11:54:37.514Z,1.20
2023-04-02T11:55:42.941Z,2.20
2023-04-02T11:56:52.365Z,1.85
2023-04-02T11:58:26.388Z,1.90
2023-04-02T12:00:09.541Z,1.95
2023-04-02T12:01:59.701Z,0.90
2023-04-02T12:03:26.108Z,1.35
2023-04-02T12:04:52.481Z,1.38
2023-04-02T12:06:06.935Z,1.60
2023-04-02T12:07:27.371Z,3.40
2023-04-02T12:08:54.276Z,1.85
2023-04-02T12:10:03.112Z,1.67
2023-04-02T12:11:06.406Z,1.50
2023-04-02T12:12:28.047Z,1.67
2023-04-02T12:13:39.803Z,1.92
2023-04-02T12:14:46.250Z,1.80
2023-04-02T12:15:52.393Z,0.90
2023-04-02T12:16:55.868Z,1.55
2023-04-02T12:18:17.246Z,1.80
2023-04-02T12:19:20.780Z,0.77
2023-04-02T12:20:28.917Z,1.08
2023-04-02T12:21:31.805Z,3.25
2023-04-02T12:22:38.191Z,1.52
2023-04-02T12:23:41.673Z,1.13
2023-04-02T12:24:48.261Z,1.35
2023-04-02T12:26:01.128Z,1.83
2023-04-02T12:27:17.124Z,1.58
2023-04-02T12:28:20.779Z,1.77
2023-04-02T12:29:27.711Z,1.38
2023-04-02T12:30:30.783Z,0.95
2023-04-02T12:31:33.905Z,1.60
2023-04-02T12:32:36.873Z,1.27
2023-04-02T12:33:41.576Z,1.20
2023-04-02T12:34:46.831Z,1.80
2023-04-02T12:35:54.999Z,1.10
2023-04-02T12:37:02.934Z,1.40
2023-04-02T12:38:06.461Z,1.10
2023-04-02T12:39:17.729Z,1.08
2023-04-02T12:40:20.658Z,0.93
2023-04-02T12:41:36.865Z,1.55
2023-04-02T12:42:39.710Z,1.38
2023-04-02T12:43:42.569Z,1.10
2023-04-02T12:44:49.808Z,1.02
2023-04-02T12:46:01.286Z,1.10
2023-04-02T12:47:05.212Z,1.10
2023-04-02T12:48:11.834Z,0.93
2023-04-02T12:49:33.934Z,1.00
2023-04-02T12:50:37.493Z,1.77
2023-04-02T12:51:40.896Z,1.02
2023-04-02T12:52:53.526Z,1.15
2023-04-02T12:53:57.421Z,1.40
2023-04-02T12:55:05.292Z,0.98
2023-04-02T12:56:18.540Z,1.38
2023-04-02T12:57:36.460Z,1.13
2023-04-02T12:58:42.855Z,0.88
2023-04-02T12:59:45.722Z,1.58
2023-04-02T13:00:49.590Z,1.27
2023-04-02T13:01:58.481Z,1.23
2023-04-02T13:03:07.312Z,1.10
2023-04-02T13:04:12.655Z,1.08
2023-04-02T13:05:36.489Z,0.88
2023-04-02T13:06:41.367Z,1.00
2023-04-02T13:07:48.051Z,1.13
2023-04-02T13:08:51.354Z,1.17
2023-04-02T13:10:25.732Z,1.73
2023-04-02T13:11:35.587Z,0.77
2023-04-02T13:12:40.412Z,1.20
2023-04-02T13:13:46.161Z,1.40
2023-04-02T13:14:56.820Z,1.42
2023-04-02T13:16:28.118Z,1.40
2023-04-02T13:17:36.855Z,1.65
2023-04-02T13:18:40.639Z,1.27
2023-04-02T13:19:43.905Z,1.38
2023-04-02T13:21:00.372Z,1.20
2023-04-02T13:22:04.529Z,2.03
2023-04-02T13:23:34.478Z,1.58
2023-04-02T13:24:38.009Z,0.88
2023-04-02T13:25:40.783Z,1.17
2023-04-02T13:26:43.610Z,1.52
2023-04-02T13:27:46.543Z,1.05
2023-04-02T13:28:57.364Z,1.20
2023-04-02T13:30:09.294Z,1.05
2023-04-02T13:31:19.413Z,1.00
2023-04-02T13:33:25.251Z,1.20
2023-04-02T13:34:28.728Z,0.93
2023-04-02T13:35:31.972Z,1.83
2023-04-02T13:36:34.978Z,0.80
2023-04-02T13:37:37.903Z,1.00
2023-04-02T13:38:41.438Z,2.13
2023-04-02T13:39:47.699Z,1.33
2023-04-02T13:40:51.630Z,1.40
2023-04-02T13:42:00.116Z,1.40
2023-04-02T13:43:03.965Z,2.65
2023-04-02T13:44:07.058Z,0.95
2023-04-02T13:45:28.846Z,1.70
2023-04-02T13:46:34.078Z,1.00
2023-04-02T13:47:39.141Z,1.92
2023-04-02T13:48:43.914Z,1.08
2023-04-02T13:49:47.086Z,1.80
2023-04-02T13:50:49.975Z,1.30
2023-04-02T13:51:59.091Z,1.63
2023-04-02T13:53:10.260Z,1.00
2023-04-02T13:54:27.905Z,1.55
2023-04-02T13:55:38.650Z,1.20
2023-04-02T13:56:42.210Z,0.93
2023-04-02T13:57:45.166Z,1.35
2023-04-02T13:58:48.060Z,0.93
2023-04-02T13:59:51.114Z,0.63
2023-04-02T14:00:54.070Z,1.13
2023-04-02T14:02:03.400Z,1.27
2023-04-02T14:03:14.491Z,0.93
2023-04-02T14:04:24.669Z,2.00
2023-04-02T14:05:54.037Z,0.80
2023-04-02T14:07:11.555Z,1.33
2023-04-02T14:08:23.101Z,0.90
2023-04-02T14:09:48.266Z,1.60
2023-04-02T14:10:51.444Z,0.95
2023-04-02T14:12:20.457Z,1.90
2023-04-02T14:13:41.702Z,1.42
2023-04-02T14:15:05.594Z,0.80
2023-04-02T14:16:09.005Z,0.90
2023-04-02T14:17:20.962Z,1.35
2023-04-02T14:18:45.840Z,0.75
2023-04-02T14:21:35.590Z,0.85
2023-04-02T14:22:41.215Z,1.67
2023-04-02T14:24:14.261Z,1.33
2023-04-02T14:25:44.681Z,0.82
2023-04-02T14:26:56.704Z,1.20
2023-04-02T14:28:07.141Z,1.00
2023-04-02T14:29:45.722Z,1.33
2023-04-02T14:31:25.963Z,0.82
2023-04-02T14:32:47.369Z,1.02
2023-04-02T14:34:02.364Z,0.93
2023-04-02T14:35:16.931Z,1.27
2023-04-02T14:36:34.683Z,1.13
2023-04-02T14:37:40.663Z,1.65
2023-04-02T14:39:14.798Z,1.35
2023-04-02T14:40:29.956Z,2.63
2023-04-02T14:41:38.906Z,1.45
2023-04-02T14:43:11.675Z,0.80
2023-04-02T14:44:16.069Z,1.05
2023-04-02T14:45:42.971Z,0.77
2023-04-02T14:46:47.318Z,1.52
2023-04-02T14:47:56.275Z,0.93
2023-04-02T14:49:33.871Z,1.02
2023-04-02T14:50:42.109Z,1.63
2023-04-02T14:52:14.133Z,1.95
2023-04-02T14:53:49.069Z,1.45
2023-04-02T14:55:05.686Z,1.02
2023-04-02T14:56:11.820Z,1.13
2023-04-02T14:57:24.814Z,1.35
2023-04-02T14:58:54.703Z,0.80
2023-04-02T15:00:06.537Z,2.03
2023-04-02T15:01:22.042Z,0.80
2023-04-02T15:02:36.603Z,0.93
2023-04-02T15:03:59.285Z,0.85
2023-04-02T15:05:31.128Z,1.23
2023-04-02T15:06:45.960Z,0.98
2023-04-02T15:08:04.979Z,1.30
2023-04-02T15:10:24.926Z,1.00
2023-04-02T15:11:34.031Z,1.15
2023-04-02T15:12:41.081Z,0.88
2023-04-02T15:14:53.876Z,1.10
2023-04-02T15:16:11.356Z,1.67
2023-04-02T15:17:15.103Z,1.17
2023-04-02T15:18:18.894Z,1.52
2023-04-02T15:19:21.936Z,1.33
2023-04-02T15:20:26.216Z,0.82
2023-04-02T15:21:57.616Z,0.70
2023-04-02T15:23:17.523Z,1.15
2023-04-02T15:24:27.363Z,0.77
2023-04-02T15:25:38.323Z,1.30
2023-04-02T15:26:59.934Z,1.52
2023-04-02T15:28:38.494Z,1.35
2023-04-02T15:30:17.012Z,1.17
2023-04-02T15:31:22.558Z,1.42
2023-04-02T15:32:33.003Z,1.08
2023-04-02T15:33:43.147Z,1.73
2023-04-02T15:35:01.919Z,1.45
2023-04-02T15:36:26.935Z,1.33
2023-04-02T15:37:32.790Z,1.30
2023-04-02T15:38:40.583Z,0.93
2023-04-02T15:39:46.365Z,1.10
2023-04-02T15:41:02.226Z,1.20
2023-04-02T15:42:23.312Z,1.00
2023-04-02T15:43:30.798Z,1.15
2023-04-02T15:44:34.366Z,0.90
2023-04-02T15:46:01.347Z,1.85
2023-04-02T15:47:04.454Z,1.30
2023-04-02T15:48:24.898Z,1.00
2023-04-02T15:49:30.766Z,0.80
2023-04-02T15:51:06.292Z,2.10
2023-04-02T15:52:30.626Z,0.98
2023-04-02T15:53:48.552Z,1.02
2023-04-02T15:55:25.707Z,1.33
2023-04-02T15:56:48.784Z,2.40
2023-04-02T15:58:09.027Z,1.30
2023-04-02T15:59:33.512Z,0.88
2023-04-02T16:00:47.725Z,1.40
2023-04-02T16:02:00.895Z,1.83
2023-04-02T16:03:31.912Z,1.33
2023-04-02T16:05:19.526Z,1.38
2023-04-02T16:06:42.914Z,1.25
2023-04-02T16:08:05.059Z,1.58
2023-04-02T16:09:23.385Z,1.00
2023-04-02T16:10:41.728Z,1.77
2023-04-02T16:11:46.297Z,1.13
2023-04-02T16:12:51.940Z,1.23
2023-04-02T16:14:15.213Z,1.75
2023-04-02T16:15:24.715Z,1.33
2023-04-02T16:16:33.152Z,1.80
2023-04-02T16:17:45.871Z,1.75
2023-04-02T16:19:17.296Z,1.17
2023-04-02T16:20:27.604Z,1.20
2023-04-02T16:21:40.629Z,0.80